createdAt,value
2018-09-30T00:01:07.569Z,85.40
2018-09-30T00:03:40.053Z,86.00
2018-09-30T00:06:12.286Z,86.20
2018-09-30T00:08:44.772Z,86.30
2018-09-30T00:11:16.987Z,87.30
2018-09-30T00:13:49.307Z,88.50
2018-09-30T00:16:21.881Z,88.60
2018-09-30T00:18:54.780Z,89.90
2018-09-30T00:21:27.040Z,89.40
2018-09-30T00:24:03.544Z,89.70
2018-09-30T00:26:40.008Z,89.80
2018-09-30T00:29:12.259Z,90.10
2018-09-30T00:31:44.502Z,90.00
2018-09-30T00:34:21.073Z,89.90
2018-09-30T00:36:53.300Z,90.10
2018-09-30T00:39:26.455Z,90.40
2018-09-30T00:41:59.337Z,90.50
2018-09-30T00:44:32.248Z,90.60
2018-09-30T00:47:04.471Z,90.80
2018-09-30T00:49:36.767Z,90.50
2018-09-30T00:52:08.984Z,90.50
2018-09-30T00:54:41.261Z,90.50
2018-09-30T00:57:13.479Z,90.50
2018-09-30T00:59:45.761Z,90.50
2018-09-30T01:02:17.981Z,90.80
2018-09-30T01:04:50.344Z,90.80
2018-09-30T01:07:22.540Z,90.90
2018-09-30T01:09:54.802Z,91.10
2018-09-30T01:12:27.681Z,91.20
2018-09-30T01:14:59.983Z,91.30
2018-09-30T01:17:32.207Z,91.40
2018-09-30T01:20:04.523Z,91.40
2018-09-30T01:22:36.738Z,91.50
2018-09-30T01:25:09.082Z,91.70
2018-09-30T01:27:41.305Z,91.60
2018-09-30T01:30:13.637Z,92.00
2018-09-30T01:32:46.475Z,92.30
2018-09-30T01:35:18.797Z,92.80
2018-09-30T01:37:51.001Z,92.90
2018-09-30T01:40:23.251Z,93.40
2018-09-30T01:42:55.447Z,93.60
2018-09-30T01:45:27.706Z,93.70
2018-09-30T01:47:59.906Z,94.00
2018-09-30T01:50:32.316Z,94.30
2018-09-30T01:53:04.515Z,94.80
2018-09-30T01:55:36.814Z,94.90
2018-09-30T01:58:09.067Z,95.10
2018-09-30T02:00:41.386Z,95.30
2018-09-30T02:03:13.594Z,95.40
2018-09-30T02:05:46.035Z,95.70
2018-09-30T02:08:18.372Z,95.90
2018-09-30T02:10:50.631Z,95.70
2018-09-30T02:13:22.902Z,95.70
2018-09-30T02:15:55.641Z,96.00
2018-09-30T02:18:28.387Z,95.90
2018-09-30T02:21:01.664Z,96.50
2018-09-30T02:23:34.373Z,96.80
2018-09-30T02:26:07.328Z,97.00
2018-09-30T02:28:40.290Z,97.60
2018-09-30T02:31:13.276Z,98.40
2018-09-30T02:33:45.975Z,99.30
2018-09-30T02:36:18.931Z,99.70
2018-09-30T02:38:51.771Z,99.90
2018-09-30T02:41:24.320Z,99.90
2018-09-30T02:43:56.879Z,99.90
2018-09-30T02:46:29.425Z,99.90
2018-09-30T02:49:01.991Z,99.90
2018-09-30T02:51:34.354Z,99.90
2018-09-30T02:54:06.616Z,99.90
2018-09-30T02:56:39.592Z,99.90
2018-09-30T02:59:12.436Z,99.90
2018-09-30T03:01:46.157Z,99.90
2018-09-30T03:04:19.173Z,99.90
2018-09-30T03:06:56.533Z,99.90
2018-09-30T03:09:29.175Z,99.90
2018-09-30T03:12:01.928Z,99.90
2018-09-30T03:14:34.799Z,99.90
2018-09-30T03:17:08.408Z,99.90
2018-09-30T03:19:41.256Z,99.90
2018-09-30T03:22:14.006Z,99.90
2018-09-30T03:24:46.832Z,99.90
2018-09-30T03:27:19.683Z,99.90
2018-09-30T03:29:52.320Z,99.90
2018-09-30T03:32:25.231Z,99.90
2018-09-30T03:34:57.951Z,99.90
2018-09-30T03:37:31.038Z,99.90
2018-09-30T03:40:03.906Z,99.90
2018-09-30T03:42:36.686Z,99.90
2018-09-30T03:45:08.636Z,99.90
2018-09-30T03:47:40.980Z,99.90
2018-09-30T03:50:13.194Z,99.90
2018-09-30T03:52:45.440Z,99.90
2018-09-30T03:55:17.646Z,99.90
2018-09-30T03:57:50.013Z,99.90
2018-09-30T04:00:23.683Z,99.90
2018-09-30T04:02:55.982Z,99.90
2018-09-30T04:05:28.180Z,99.90
2018-09-30T04:08:00.723Z,99.90
2018-09-30T04:10:32.924Z,99.90
2018-09-30T04:13:05.257Z,99.90
2018-09-30T04:15:37.480Z,99.90
2018-09-30T04:18:09.735Z,99.90
2018-09-30T04:20:42.592Z,99.90
2018-09-30T04:23:15.540Z,99.90
2018-09-30T04:25:48.296Z,99.90
2018-09-30T04:28:21.254Z,99.90
2018-09-30T04:30:54.460Z,99.90
2018-09-30T04:33:27.591Z,99.90
2018-09-30T04:35:59.820Z,99.90
2018-09-30T04:38:32.088Z,99.90
2018-09-30T04:41:04.292Z,99.90
2018-09-30T04:43:37.314Z,99.90
2018-09-30T04:46:10.051Z,99.90
2018-09-30T04:48:43.005Z,99.90
2018-09-30T04:51:16.040Z,99.90
2018-09-30T04:53:48.901Z,99.90
2018-09-30T04:56:21.651Z,99.90
2018-09-30T04:58:54.571Z,99.90
2018-09-30T05:01:27.454Z,99.90
2018-09-30T05:03:59.953Z,99.90
2018-09-30T05:06:32.671Z,99.90
2018-09-30T05:09:05.956Z,99.90
2018-09-30T05:11:38.652Z,99.90
2018-09-30T05:14:11.170Z,99.90
2018-09-30T05:16:43.632Z,99.90
2018-09-30T05:19:15.915Z,99.90
2018-09-30T05:21:48.827Z,99.90
2018-09-30T05:24:21.262Z,99.90
2018-09-30T05:26:53.468Z,99.90
2018-09-30T05:29:25.775Z,99.90
2018-09-30T05:31:58.021Z,99.90
2018-09-30T05:34:30.307Z,99.90
2018-09-30T05:37:02.695Z,99.90
2018-09-30T05:39:35.576Z,99.90
2018-09-30T05:42:08.367Z,99.90
2018-09-30T05:44:40.648Z,99.90
2018-09-30T05:47:12.859Z,99.90
2018-09-30T05:49:45.113Z,99.90
2018-09-30T05:52:17.320Z,99.90
2018-09-30T05:54:49.631Z,99.90
2018-09-30T05:57:22.401Z,99.90
2018-09-30T05:59:55.284Z,99.90
2018-09-30T06:02:28.015Z,99.90
2018-09-30T06:05:00.772Z,99.90
2018-09-30T06:07:33.648Z,99.90
2018-09-30T06:10:06.542Z,99.90
2018-09-30T06:12:39.511Z,99.90
2018-09-30T06:15:12.552Z,99.90
2018-09-30T06:17:45.468Z,99.90
2018-09-30T06:20:18.375Z,99.90
2018-09-30T06:22:51.179Z,99.90
2018-09-30T06:25:23.917Z,99.90
2018-09-30T06:27:56.837Z,99.90
2018-09-30T06:30:29.581Z,99.90
2018-09-30T06:33:02.338Z,99.90
2018-09-30T06:35:35.116Z,99.90
2018-09-30T06:38:07.906Z,99.90
2018-09-30T06:40:40.588Z,99.90
2018-09-30T06:43:13.225Z,99.90
2018-09-30T06:45:46.042Z,99.90
2018-09-30T06:48:19.140Z,99.90
2018-09-30T06:50:52.047Z,99.90
2018-09-30T06:53:24.988Z,99.90
2018-09-30T06:55:57.904Z,99.90
2018-09-30T06:58:30.767Z,99.90
2018-09-30T07:01:03.554Z,99.90
2018-09-30T07:03:36.325Z,99.90
2018-09-30T07:06:09.847Z,99.90
2018-09-30T07:08:42.046Z,99.90
2018-09-30T07:11:14.316Z,99.90
2018-09-30T07:13:46.599Z,99.90
2018-09-30T07:16:18.928Z,99.90
2018-09-30T07:18:51.103Z,99.90
2018-09-30T07:21:23.348Z,99.90
2018-09-30T07:23:55.579Z,99.90
2018-09-30T07:26:27.844Z,99.90
2018-09-30T07:29:00.565Z,99.90
2018-09-30T07:31:33.351Z,99.90
2018-09-30T07:34:05.558Z,99.90
2018-09-30T07:36:37.804Z,99.90
2018-09-30T07:39:12.040Z,99.90
2018-09-30T07:41:44.308Z,99.90
2018-09-30T07:44:16.557Z,99.90
2018-09-30T07:46:48.965Z,99.90
2018-09-30T07:49:21.372Z,99.90
2018-09-30T07:51:53.622Z,99.90
2018-09-30T07:54:25.808Z,99.90
2018-09-30T07:56:58.081Z,99.90
2018-09-30T07:59:30.416Z,99.90
2018-09-30T08:02:02.864Z,99.90
2018-09-30T08:04:35.132Z,99.90
2018-09-30T08:07:07.460Z,99.90
2018-09-30T08:09:39.673Z,99.90
2018-09-30T08:12:11.978Z,99.90
2018-09-30T08:14:44.173Z,99.90
2018-09-30T08:17:16.507Z,99.90
2018-09-30T08:19:48.689Z,99.90
2018-09-30T08:22:20.951Z,99.90
2018-09-30T08:24:53.129Z,99.90
2018-09-30T08:27:25.380Z,99.90
2018-09-30T08:29:57.583Z,99.90
2018-09-30T08:32:29.872Z,99.90
2018-09-30T08:35:02.100Z,99.90
2018-09-30T08:37:38.671Z,99.90
2018-09-30T08:40:12.232Z,99.90
2018-09-30T08:42:45.199Z,99.90
2018-09-30T08:45:17.396Z,99.90
2018-09-30T08:47:49.800Z,99.90
2018-09-30T08:50:22.037Z,99.90
2018-09-30T08:52:54.279Z,99.90
2018-09-30T08:55:26.478Z,99.90
2018-09-30T08:57:58.755Z,99.90
2018-09-30T09:00:30.951Z,99.90
2018-09-30T09:03:04.235Z,99.90
2018-09-30T09:05:36.500Z,99.90
2018-09-30T09:08:08.768Z,99.90
2018-09-30T09:10:40.955Z,99.90
2018-09-30T09:13:13.243Z,99.90
2018-09-30T09:15:45.623Z,99.90
2018-09-30T09:18:17.898Z,99.90
2018-09-30T09:20:50.087Z,99.90
2018-09-30T09:23:22.347Z,99.90
2018-09-30T09:25:54.559Z,99.90
2018-09-30T09:28:26.903Z,99.90
2018-09-30T09:30:59.141Z,99.90
2018-09-30T09:33:31.406Z,99.90
2018-09-30T09:36:03.798Z,99.90
2018-09-30T09:38:36.184Z,99.90
2018-09-30T09:41:08.819Z,99.90
2018-09-30T09:43:41.107Z,99.90
2018-09-30T09:46:13.299Z,99.90
2018-09-30T09:48:45.605Z,99.90
2018-09-30T09:51:17.802Z,99.90
2018-09-30T09:53:50.035Z,99.90
2018-09-30T09:56:22.838Z,99.90
2018-09-30T09:58:55.190Z,99.90
2018-09-30T10:01:27.463Z,99.90
2018-09-30T10:04:00.630Z,99.90
2018-09-30T10:06:33.288Z,99.90
2018-09-30T10:09:06.658Z,99.90
2018-09-30T10:11:39.494Z,99.90
2018-09-30T10:14:12.780Z,99.90
2018-09-30T10:16:45.692Z,99.90
2018-09-30T10:19:18.611Z,99.90
2018-09-30T10:21:50.792Z,99.90
2018-09-30T10:24:23.021Z,99.90
2018-09-30T10:26:55.241Z,99.90
2018-09-30T10:29:27.525Z,99.90
2018-09-30T10:31:59.743Z,99.90
2018-09-30T10:34:32.019Z,99.90
2018-09-30T10:37:04.272Z,99.90
2018-09-30T10:39:36.608Z,99.90
2018-09-30T10:42:09.459Z,99.90
2018-09-30T10:44:42.345Z,99.90
2018-09-30T10:47:15.359Z,99.90
2018-09-30T10:49:48.268Z,99.90
2018-09-30T10:52:21.272Z,99.90
2018-09-30T10:54:54.155Z,99.90
2018-09-30T10:57:26.714Z,99.90
2018-09-30T10:59:59.671Z,99.90
2018-09-30T11:02:32.396Z,99.90
2018-09-30T11:05:05.207Z,99.90
2018-09-30T11:07:38.015Z,99.90
2018-09-30T11:10:10.960Z,99.90
2018-09-30T11:12:43.920Z,99.90
2018-09-30T11:15:16.758Z,99.90
2018-09-30T11:17:48.955Z,99.90
2018-09-30T11:20:22.163Z,99.90
2018-09-30T11:22:54.891Z,99.90
2018-09-30T11:25:27.983Z,99.90
2018-09-30T11:28:00.701Z,99.90
2018-09-30T11:30:32.944Z,99.90
2018-09-30T11:33:05.412Z,99.90
2018-09-30T11:35:38.165Z,99.90
2018-09-30T11:38:10.627Z,99.90
2018-09-30T11:40:42.909Z,99.90
2018-09-30T11:43:15.108Z,99.90
2018-09-30T11:45:47.371Z,99.90
2018-09-30T11:48:19.562Z,99.90
2018-09-30T11:50:51.831Z,99.90
2018-09-30T11:53:24.040Z,99.90
2018-09-30T11:55:56.463Z,99.90
2018-09-30T11:58:28.667Z,99.90
2018-09-30T12:01:00.989Z,99.90
2018-09-30T12:03:33.188Z,99.90
2018-09-30T12:06:05.532Z,99.90
2018-09-30T12:08:37.918Z,99.90
2018-09-30T12:11:10.366Z,99.90
2018-09-30T12:13:42.581Z,99.90
2018-09-30T12:16:14.856Z,99.90
2018-09-30T12:18:47.137Z,99.90
2018-09-30T12:21:19.499Z,99.90
2018-09-30T12:23:51.729Z,99.90
2018-09-30T12:26:23.982Z,99.90
2018-09-30T12:28:56.185Z,99.90
2018-09-30T12:31:28.536Z,99.90
2018-09-30T12:34:00.758Z,99.90
2018-09-30T12:36:33.778Z,99.90
2018-09-30T12:39:06.754Z,99.90
2018-09-30T12:41:39.072Z,99.90
2018-09-30T12:44:11.288Z,99.90
2018-09-30T12:46:43.561Z,99.90
2018-09-30T12:49:15.767Z,99.90
2018-09-30T12:51:48.245Z,99.90
2018-09-30T12:54:20.488Z,99.90
2018-09-30T12:56:52.800Z,99.90
2018-09-30T12:59:24.998Z,99.90
2018-09-30T13:01:57.268Z,99.90
2018-09-30T13:04:29.557Z,99.90
2018-09-30T13:07:01.892Z,99.90
2018-09-30T13:09:34.085Z,99.90
2018-09-30T13:12:06.370Z,99.90
2018-09-30T13:14:38.562Z,99.90
2018-09-30T13:17:10.836Z,99.90
2018-09-30T13:19:44.119Z,99.90
2018-09-30T13:22:16.610Z,99.90
2018-09-30T13:24:48.797Z,99.90
2018-09-30T13:27:21.270Z,99.90
2018-09-30T13:29:53.641Z,99.90
2018-09-30T13:32:26.039Z,99.90
2018-09-30T13:34:58.272Z,99.90
2018-09-30T13:37:30.709Z,99.90
2018-09-30T13:40:03.411Z,99.90
2018-09-30T13:42:39.271Z,99.90
2018-09-30T13:45:12.699Z,99.90
2018-09-30T13:47:44.951Z,99.90
2018-09-30T13:50:17.169Z,99.90
2018-09-30T13:52:49.535Z,99.90
2018-09-30T13:55:21.759Z,99.90
2018-09-30T13:57:54.029Z,99.90
2018-09-30T14:00:26.402Z,99.90
2018-09-30T14:02:58.688Z,99.90
2018-09-30T14:05:30.930Z,99.90
2018-09-30T14:08:04.216Z,99.90
2018-09-30T14:10:36.471Z,99.90
2018-09-30T14:13:09.641Z,99.90
2018-09-30T14:15:48.034Z,99.90
2018-09-30T14:18:21.110Z,99.90
2018-09-30T14:20:54.131Z,99.90
2018-09-30T14:23:26.503Z,99.90
2018-09-30T14:25:58.696Z,99.90
2018-09-30T14:28:30.988Z,99.90
2018-09-30T14:31:03.206Z,99.90
2018-09-30T14:33:35.456Z,99.90
2018-09-30T14:36:07.735Z,99.90
2018-09-30T14:38:40.102Z,99.90
2018-09-30T14:41:12.312Z,99.90
2018-09-30T14:43:44.752Z,99.90
2018-09-30T14:46:16.968Z,99.90
2018-09-30T14:48:49.237Z,99.90
2018-09-30T14:51:21.548Z,99.90
2018-09-30T14:53:54.027Z,99.90
2018-09-30T14:56:26.259Z,99.90
2018-09-30T14:58:58.542Z,99.90
2018-09-30T15:01:30.748Z,99.90
2018-09-30T15:04:04.536Z,99.90
2018-09-30T15:06:36.766Z,99.90
2018-09-30T15:09:12.075Z,98.10
2018-09-30T15:11:44.271Z,99.30
2018-09-30T15:14:16.525Z,97.40
2018-09-30T15:16:48.736Z,95.40
2018-09-30T15:19:21.055Z,93.80
2018-09-30T15:21:53.812Z,92.60
2018-09-30T15:24:26.850Z,93.00
2018-09-30T15:26:59.745Z,90.70
2018-09-30T15:29:32.613Z,90.60
2018-09-30T15:32:05.420Z,87.60
2018-09-30T15:34:38.380Z,84.00
2018-09-30T15:37:11.364Z,81.80
2018-09-30T15:39:43.707Z,80.10
2018-09-30T15:42:16.023Z,79.30
2018-09-30T15:44:48.581Z,76.80
2018-09-30T15:47:21.024Z,76.80
2018-09-30T15:49:55.357Z,75.80
2018-09-30T15:52:28.102Z,75.30
2018-09-30T15:55:00.796Z,75.10
2018-09-30T15:57:33.412Z,72.80
2018-09-30T16:00:06.063Z,73.40
2018-09-30T16:02:38.860Z,72.50
2018-09-30T16:05:11.987Z,72.50
2018-09-30T16:07:44.966Z,74.20
2018-09-30T16:10:18.711Z,72.70
2018-09-30T16:12:51.748Z,71.10
2018-09-30T16:15:24.541Z,73.30
2018-09-30T16:17:57.605Z,73.20
2018-09-30T16:20:30.395Z,72.90
2018-09-30T16:23:03.068Z,70.90
2018-09-30T16:25:35.896Z,70.30
2018-09-30T16:28:08.113Z,69.90
2018-09-30T16:30:40.753Z,69.80
2018-09-30T16:33:13.357Z,69.80
2018-09-30T16:35:46.422Z,68.60
2018-09-30T16:38:19.021Z,67.40
2018-09-30T16:40:51.772Z,67.40
2018-09-30T16:43:24.361Z,67.00
2018-09-30T16:45:57.261Z,68.40
2018-09-30T16:48:30.179Z,67.50
2018-09-30T16:51:02.890Z,65.50
2018-09-30T16:53:35.568Z,65.70
2018-09-30T16:56:08.604Z,67.50
2018-09-30T16:58:41.379Z,67.60
2018-09-30T17:01:14.235Z,66.70
2018-09-30T17:03:47.023Z,66.20
2018-09-30T17:06:20.053Z,63.70
2018-09-30T17:08:52.829Z,63.80
2018-09-30T17:11:25.449Z,65.60
2018-09-30T17:13:58.193Z,64.70
2018-09-30T17:16:30.797Z,64.30
2018-09-30T17:19:04.005Z,60.20
2018-09-30T17:21:36.983Z,63.30
2018-09-30T17:24:09.853Z,62.90
2018-09-30T17:26:43.050Z,64.20
2018-09-30T17:29:15.580Z,63.90
2018-09-30T17:31:48.774Z,63.80
2018-09-30T17:34:21.647Z,63.10
2018-09-30T17:36:54.128Z,61.90
2018-09-30T17:39:26.455Z,62.70
2018-09-30T17:41:59.197Z,61.30
2018-09-30T17:44:31.864Z,63.70
2018-09-30T17:47:04.977Z,64.40
2018-09-30T17:49:37.831Z,64.80
2018-09-30T17:52:10.605Z,63.00
2018-09-30T17:54:43.664Z,61.00
2018-09-30T17:57:15.933Z,61.70
2018-09-30T17:59:48.187Z,63.40
2018-09-30T18:02:20.501Z,64.90
2018-09-30T18:04:52.699Z,67.50
2018-09-30T18:07:25.644Z,67.40
2018-09-30T18:09:58.219Z,66.90
2018-09-30T18:12:31.710Z,66.80
2018-09-30T18:15:03.993Z,68.20
2018-09-30T18:17:37.035Z,67.00
2018-09-30T18:20:10.154Z,66.30
2018-09-30T18:22:43.360Z,65.50
2018-09-30T18:25:16.384Z,65.00
2018-09-30T18:27:49.655Z,64.80
2018-09-30T18:30:22.568Z,64.10
2018-09-30T18:32:55.645Z,65.00
2018-09-30T18:35:28.215Z,64.40
2018-09-30T18:38:01.132Z,64.40
2018-09-30T18:40:45.292Z,65.30
2018-09-30T18:43:18.546Z,66.40
2018-09-30T18:45:51.508Z,66.20
2018-09-30T18:48:25.301Z,68.20
2018-09-30T18:50:58.416Z,70.30
2018-09-30T18:53:31.622Z,72.50
2018-09-30T18:56:04.647Z,71.90
2018-09-30T18:58:37.833Z,69.80
2018-09-30T19:01:11.523Z,70.80
2018-09-30T19:03:45.872Z,68.10
2018-09-30T19:06:18.754Z,66.70
2018-09-30T19:08:51.937Z,65.70
2018-09-30T19:11:25.242Z,66.40
2018-09-30T19:13:58.306Z,66.70
2018-09-30T19:16:31.292Z,66.80
2018-09-30T19:19:05.261Z,66.50
2018-09-30T19:21:38.183Z,67.60
2018-09-30T19:24:10.579Z,67.60
2018-09-30T19:26:42.822Z,68.60
2018-09-30T19:29:15.241Z,68.70
2018-09-30T19:31:47.443Z,65.70
2018-09-30T19:34:19.743Z,63.70
2018-09-30T19:36:52.008Z,65.80
2018-09-30T19:39:24.268Z,64.60
2018-09-30T19:41:56.468Z,62.90
2018-09-30T19:44:28.819Z,64.90
2018-09-30T19:47:01.003Z,65.30
2018-09-30T19:49:33.501Z,66.00
2018-09-30T19:52:06.175Z,63.30
2018-09-30T19:54:39.079Z,63.50
2018-09-30T19:57:12.168Z,63.90
2018-09-30T19:59:45.104Z,64.10
2018-09-30T20:02:17.303Z,63.60
2018-09-30T20:04:49.659Z,62.50
2018-09-30T20:07:21.858Z,62.80
2018-09-30T20:09:54.242Z,64.80
2018-09-30T20:12:26.477Z,63.90
2018-09-30T20:14:58.719Z,63.40
2018-09-30T20:17:30.911Z,66.00
2018-09-30T20:20:03.180Z,64.40
2018-09-30T20:22:35.502Z,64.30
2018-09-30T20:25:07.911Z,64.00
2018-09-30T20:27:40.753Z,63.30
2018-09-30T20:30:13.821Z,63.40
2018-09-30T20:32:46.861Z,64.20
2018-09-30T20:35:19.123Z,63.30
2018-09-30T20:37:51.364Z,65.10
2018-09-30T20:40:23.683Z,64.60
2018-09-30T20:42:55.872Z,64.20
2018-09-30T20:45:28.649Z,64.80
2018-09-30T20:48:01.446Z,66.00
2018-09-30T20:50:34.320Z,66.30
2018-09-30T20:53:07.559Z,67.80
2018-09-30T20:55:40.437Z,67.20
2018-09-30T20:58:13.211Z,66.40
2018-09-30T21:00:45.872Z,67.20
2018-09-30T21:03:19.619Z,68.20
2018-09-30T21:06:54.665Z,65.40
2018-09-30T21:09:27.608Z,65.60
2018-09-30T21:12:02.344Z,67.10
2018-09-30T21:14:34.596Z,68.20
2018-09-30T21:17:06.904Z,67.40
2018-09-30T21:19:39.743Z,67.80
2018-09-30T21:22:12.495Z,69.20
2018-09-30T21:24:45.279Z,68.70
2018-09-30T21:27:17.645Z,68.90
2018-09-30T21:29:49.900Z,70.10
2018-09-30T21:32:22.465Z,70.80
2018-09-30T21:34:55.092Z,71.10
2018-09-30T21:37:28.494Z,71.30
2018-09-30T21:40:01.545Z,72.00
2018-09-30T21:42:34.600Z,71.60
2018-09-30T21:45:06.836Z,71.90
2018-09-30T21:47:39.107Z,72.60
2018-09-30T21:50:11.890Z,72.40
2018-09-30T21:52:44.151Z,70.40
2018-09-30T21:55:16.352Z,72.60
2018-09-30T21:57:48.656Z,73.90
2018-09-30T22:00:25.180Z,81.40
2018-09-30T22:02:57.469Z,84.00
2018-09-30T22:05:30.260Z,86.50
2018-09-30T22:08:02.868Z,87.20
2018-09-30T22:10:35.151Z,89.20
2018-09-30T22:13:07.551Z,90.10
2018-09-30T22:15:40.092Z,90.80
2018-09-30T22:18:12.356Z,91.80
2018-09-30T22:20:45.052Z,92.40
2018-09-30T22:23:17.970Z,91.60
2018-09-30T22:25:50.176Z,90.50
2018-09-30T22:28:22.489Z,90.60
2018-09-30T22:30:54.722Z,89.80
2018-09-30T22:33:26.963Z,89.30
2018-09-30T22:35:59.147Z,84.90
2018-09-30T22:38:31.397Z,81.70
2018-09-30T22:41:04.348Z,81.50
2018-09-30T22:43:37.146Z,81.30
2018-09-30T22:46:09.945Z,75.90
2018-09-30T22:48:42.895Z,75.80
2018-09-30T22:51:15.552Z,75.70
2018-09-30T22:53:48.310Z,74.40
2018-09-30T22:56:20.916Z,74.60
2018-09-30T22:58:53.932Z,73.10
2018-09-30T23:01:26.582Z,74.00
2018-09-30T23:03:59.222Z,74.60
2018-09-30T23:06:32.062Z,75.10
2018-09-30T23:09:05.848Z,74.90
2018-09-30T23:11:38.541Z,75.50
2018-09-30T23:14:11.431Z,76.00
2018-09-30T23:16:44.329Z,76.40
2018-09-30T23:19:17.176Z,77.20
2018-09-30T23:21:50.115Z,78.70
2018-09-30T23:24:23.201Z,79.70
2018-09-30T23:26:55.968Z,80.90
2018-09-30T23:29:29.049Z,80.70
2018-09-30T23:32:01.781Z,81.60
2018-09-30T23:34:34.657Z,82.70
2018-09-30T23:37:07.598Z,84.50
2018-09-30T23:39:40.587Z,86.10
2018-09-30T23:42:13.692Z,87.50
2018-09-30T23:44:46.349Z,88.40
2018-09-30T23:47:19.348Z,89.30
2018-09-30T23:49:52.251Z,90.90
2018-09-30T23:52:25.201Z,91.70
2018-09-30T23:54:58.222Z,92.70
2018-09-30T23:57:31.208Z,93.20
